createdAt,value
2022-10-11T00:06:55.272Z,18.67
2022-10-11T00:17:02.304Z,18.68
2022-10-11T00:27:08.339Z,18.67
2022-10-11T00:37:13.991Z,18.67
2022-10-11T00:47:19.986Z,18.67
2022-10-11T00:57:26.585Z,18.67
2022-10-11T01:07:32.681Z,18.68
2022-10-11T01:17:38.487Z,18.68
2022-10-11T01:27:44.440Z,18.71
2022-10-11T01:37:50.391Z,18.70
2022-10-11T01:47:56.670Z,18.70
2022-10-11T01:58:02.850Z,18.70
2022-10-11T02:08:09.276Z,18.72
2022-10-11T02:18:15.399Z,18.72
2022-10-11T02:28:21.429Z,18.72
2022-10-11T02:38:27.864Z,18.76
2022-10-11T02:48:34.400Z,18.76
2022-10-11T02:58:40.089Z,18.76
2022-10-11T03:08:46.076Z,18.78
2022-10-11T03:18:51.776Z,18.78
2022-10-11T03:28:57.829Z,18.81
2022-10-11T03:39:03.679Z,18.82
2022-10-11T03:49:10.016Z,18.85
2022-10-11T03:59:16.179Z,18.88
2022-10-11T04:09:22.049Z,18.88
2022-10-11T04:19:27.553Z,18.85
2022-10-11T04:29:33.578Z,18.85
2022-10-11T04:39:39.735Z,18.85
2022-10-11T04:49:45.634Z,18.85
2022-10-11T04:59:51.796Z,18.84
2022-10-11T05:09:58.146Z,18.84
2022-10-11T05:20:04.230Z,18.82
2022-10-11T05:30:10.180Z,18.82
2022-10-11T05:40:16.382Z,18.84
2022-10-11T05:50:24.471Z,18.84
2022-10-11T06:00:32.551Z,18.84
2022-10-11T06:10:38.792Z,18.84
2022-10-11T06:20:47.722Z,18.85
2022-10-11T06:30:55.270Z,18.84
2022-10-11T06:41:02.372Z,18.84
2022-10-11T06:51:10.375Z,18.86
2022-10-11T07:01:16.617Z,18.90
2022-10-11T07:11:22.893Z,18.90
2022-10-11T07:21:28.941Z,18.91
2022-10-11T07:31:35.047Z,18.91
2022-10-11T07:41:45.624Z,18.95
2022-10-11T07:51:52.148Z,19.12
2022-10-11T08:01:58.002Z,19.12
2022-10-11T08:12:04.980Z,19.32
2022-10-11T08:22:11.147Z,19.42
2022-10-11T08:32:17.042Z,19.49
2022-10-11T08:42:23.431Z,19.59
2022-10-11T08:52:29.619Z,19.59
2022-10-11T09:03:02.870Z,19.91
2022-10-11T09:12:46.822Z,20.12
2022-10-11T09:22:52.890Z,20.12
2022-10-11T09:32:59.615Z,21.38
2022-10-11T09:43:07.056Z,21.38
2022-10-11T09:53:14.875Z,22.63
2022-10-11T10:03:22.339Z,23.06
2022-10-11T10:13:30.042Z,23.33
2022-10-11T10:23:37.364Z,23.63
2022-10-11T10:33:44.747Z,23.48
2022-10-11T10:43:51.265Z,23.81
2022-10-11T10:53:57.323Z,24.00
2022-10-11T11:04:03.984Z,24.17
2022-10-11T11:14:11.319Z,24.34
2022-10-11T11:24:18.662Z,25.07
2022-10-11T11:34:26.456Z,25.25
2022-10-11T11:44:33.718Z,25.38
2022-10-11T11:54:41.165Z,25.42
2022-10-11T12:04:48.418Z,25.46
2022-10-11T12:14:56.138Z,25.53
2022-10-11T12:25:02.854Z,25.63
2022-10-11T12:35:10.220Z,25.75
2022-10-11T12:45:17.564Z,25.88
2022-10-11T12:55:24.992Z,25.95
2022-10-11T13:05:32.267Z,26.01
2022-10-11T13:15:39.607Z,26.09
2022-10-11T13:25:47.173Z,26.06
2022-10-11T13:35:53.326Z,25.98
2022-10-11T13:46:00.766Z,25.97
2022-10-11T13:56:08.351Z,25.90
2022-10-11T14:06:15.853Z,25.82
2022-10-11T14:16:23.047Z,25.84
2022-10-11T14:26:30.259Z,25.73
2022-10-11T14:36:37.520Z,25.62
2022-10-11T14:46:44.724Z,25.41
2022-10-11T14:56:51.812Z,25.21
2022-10-11T15:06:58.719Z,24.72
2022-10-11T15:17:06.101Z,24.17
2022-10-11T15:27:13.000Z,23.73
2022-10-11T15:37:20.264Z,23.23
2022-10-11T15:47:29.027Z,22.82
2022-10-11T15:57:35.582Z,22.55
2022-10-11T16:07:42.356Z,22.55
2022-10-11T16:17:49.111Z,22.27
2022-10-11T16:27:56.175Z,22.12
2022-10-11T16:38:02.998Z,21.39
2022-10-11T16:48:09.693Z,21.39
2022-10-11T16:58:16.431Z,20.82
2022-10-11T17:08:23.233Z,20.57
2022-10-11T17:18:30.496Z,20.02
2022-10-11T17:28:37.255Z,20.02
2022-10-11T17:38:44.369Z,19.96
2022-10-11T17:48:51.464Z,19.76
2022-10-11T17:58:58.005Z,19.68
2022-10-11T18:09:04.843Z,19.60
2022-10-11T18:19:11.920Z,19.52
2022-10-11T18:29:19.062Z,19.38
2022-10-11T18:39:26.099Z,19.25
2022-10-11T18:49:33.154Z,19.17
2022-10-11T18:59:40.367Z,19.03
2022-10-11T19:09:47.849Z,19.22
2022-10-11T19:19:53.684Z,19.22
2022-10-11T19:29:59.289Z,18.88
2022-10-11T19:40:04.686Z,18.88
2022-10-11T19:50:10.941Z,19.16
2022-10-11T20:00:16.961Z,19.00
2022-10-11T20:10:22.743Z,18.78
2022-10-11T20:20:29.294Z,18.71
2022-10-11T20:30:35.279Z,18.71
2022-10-11T20:40:41.233Z,18.42
2022-10-11T20:50:47.490Z,18.23
2022-10-11T21:00:53.454Z,18.28
2022-10-11T21:10:59.406Z,18.08
2022-10-11T21:21:04.797Z,18.08
2022-10-11T21:31:11.080Z,18.02
2022-10-11T21:41:17.031Z,18.02
2022-10-11T21:51:23.159Z,17.95
2022-10-11T22:01:29.013Z,17.85
2022-10-11T22:11:35.656Z,17.77
2022-10-11T22:21:45.029Z,17.77
2022-10-11T22:31:51.121Z,17.77
2022-10-11T22:41:57.484Z,17.71
2022-10-11T22:52:03.512Z,17.56
2022-10-11T23:02:09.789Z,17.60
2022-10-11T23:12:16.001Z,17.60
2022-10-11T23:22:21.437Z,17.52
2022-10-11T23:32:28.943Z,17.45
2022-10-11T23:42:35.443Z,17.40
2022-10-11T23:52:41.656Z,17.40
